sensor_id;sensor_type;location;lat;lon;timestamp;pressure;altitude;pressure_sealevel;temperature;humidity
56671;BME280;42545;50.054;8.306;2022-07-22T00:01:32;100386.22;;;18.03;79.77
56671;BME280;42545;50.054;8.306;2022-07-22T00:03:59;100381.78;;;18.02;80.01
56671;BME280;42545;50.054;8.306;2022-07-22T00:06:27;100388.91;;;18.02;80.15
56671;BME280;42545;50.054;8.306;2022-07-22T00:08:54;100386.25;;;18.00;80.29
56671;BME280;42545;50.054;8.306;2022-07-22T00:11:23;100387.13;;;17.98;80.30
56671;BME280;42545;50.054;8.306;2022-07-22T00:13:49;100389.84;;;17.96;80.70
56671;BME280;42545;50.054;8.306;2022-07-22T00:16:16;100395.19;;;17.93;81.08
56671;BME280;42545;50.054;8.306;2022-07-22T00:18:44;100392.56;;;17.89;81.22
56671;BME280;42545;50.054;8.306;2022-07-22T00:21:11;100383.69;;;17.85;81.41
56671;BME280;42545;50.054;8.306;2022-07-22T00:23:38;100382.78;;;17.83;82.23
56671;BME280;42545;50.054;8.306;2022-07-22T00:26:05;100385.50;;;17.78;82.04
56671;BME280;42545;50.054;8.306;2022-07-22T00:28:33;100380.16;;;17.80;81.93
56671;BME280;42545;50.054;8.306;2022-07-22T00:31:00;100376.56;;;17.81;81.64
56671;BME280;42545;50.054;8.306;2022-07-22T00:33:27;100376.56;;;17.81;81.88
56671;BME280;42545;50.054;8.306;2022-07-22T00:35:55;100380.16;;;17.80;81.99
56671;BME280;42545;50.054;8.306;2022-07-22T00:38:22;100377.50;;;17.75;82.11
56671;BME280;42545;50.054;8.306;2022-07-22T00:40:49;100380.19;;;17.74;82.32
56671;BME280;42545;50.054;8.306;2022-07-22T00:43:16;100382.00;;;17.70;82.83
56671;BME280;42545;50.054;8.306;2022-07-22T00:45:52;100378.47;;;17.65;83.08
56671;BME280;42545;50.054;8.306;2022-07-22T00:48:19;100382.06;;;17.61;83.43
56671;BME280;42545;50.054;8.306;2022-07-22T00:50:46;100376.78;;;17.55;83.87
56671;BME280;42545;50.054;8.306;2022-07-22T00:53:12;100367.91;;;17.51;84.19
56671;BME280;42545;50.054;8.306;2022-07-22T00:55:40;100369.72;;;17.49;84.72
56671;BME280;42545;50.054;8.306;2022-07-22T00:58:07;100367.06;;;17.47;84.47
56671;BME280;42545;50.054;8.306;2022-07-22T01:00:34;100375.97;;;17.42;84.52
56671;BME280;42545;50.054;8.306;2022-07-22T01:03:03;100389.34;;;17.37;84.79
56671;BME280;42545;50.054;8.306;2022-07-22T01:05:30;100376.06;;;17.29;84.89
56671;BME280;42545;50.054;8.306;2022-07-22T01:07:56;100368.09;;;17.22;85.61
56671;BME280;42545;50.054;8.306;2022-07-22T01:10:24;100370.78;;;17.19;86.33
56671;BME280;42545;50.054;8.306;2022-07-22T01:12:51;100372.56;;;17.20;86.57
56671;BME280;42545;50.054;8.306;2022-07-22T01:15:18;100386.78;;;17.20;86.58
56671;BME280;42545;50.054;8.306;2022-07-22T01:17:45;100374.31;;;17.21;87.10
56671;BME280;42545;50.054;8.306;2022-07-22T01:20:13;100384.09;;;17.22;86.87
56671;BME280;42545;50.054;8.306;2022-07-22T01:22:40;100384.13;;;17.17;87.10
56671;BME280;42545;50.054;8.306;2022-07-22T01:25:07;100382.38;;;17.15;87.55
56671;BME280;42545;50.054;8.306;2022-07-22T01:27:34;100385.03;;;17.10;87.82
56671;BME280;42545;50.054;8.306;2022-07-22T01:30:01;100386.88;;;17.05;87.80
56671;BME280;42545;50.054;8.306;2022-07-22T01:32:29;100384.22;;;16.99;88.02
56671;BME280;42545;50.054;8.306;2022-07-22T01:34:56;100378.88;;;16.96;88.28
56671;BME280;42545;50.054;8.306;2022-07-22T01:37:24;100380.66;;;16.95;87.99
56671;BME280;42545;50.054;8.306;2022-07-22T01:39:51;100381.56;;;16.96;87.88
56671;BME280;42545;50.054;8.306;2022-07-22T01:42:18;100381.56;;;16.96;88.10
56671;BME280;42545;50.054;8.306;2022-07-22T01:44:45;100377.13;;;16.95;88.13
56671;BME280;42545;50.054;8.306;2022-07-22T01:47:12;100378.88;;;16.96;88.20
56671;BME280;42545;50.054;8.306;2022-07-22T01:49:39;100376.25;;;16.94;88.35
56671;BME280;42545;50.054;8.306;2022-07-22T01:52:05;100369.13;;;16.93;88.30
56671;BME280;42545;50.054;8.306;2022-07-22T01:54:34;100367.34;;;16.94;88.38
56671;BME280;42545;50.054;8.306;2022-07-22T01:57:01;100375.34;;;16.94;88.95
56671;BME280;42545;50.054;8.306;2022-07-22T01:59:29;100378.00;;;16.94;88.88
56671;BME280;42545;50.054;8.306;2022-07-22T02:01:55;100378.00;;;16.94;89.15
56671;BME280;42545;50.054;8.306;2022-07-22T02:04:22;100373.59;;;16.93;89.04
56671;BME280;42545;50.054;8.306;2022-07-22T02:06:49;100377.13;;;16.93;88.87
56671;BME280;42545;50.054;8.306;2022-07-22T02:09:16;100380.72;;;16.90;87.97
56671;BME280;42545;50.054;8.306;2022-07-22T02:11:44;100380.72;;;16.90;88.29
56671;BME280;42545;50.054;8.306;2022-07-22T02:14:11;100383.34;;;16.94;88.48
56671;BME280;42545;50.054;8.306;2022-07-22T02:16:38;100380.66;;;16.97;88.73
56671;BME280;42545;50.054;8.306;2022-07-22T02:19:05;100386.00;;;16.98;88.45
56671;BME280;42545;50.054;8.306;2022-07-22T02:21:32;100379.75;;;17.01;88.77
56671;BME280;42545;50.054;8.306;2022-07-22T02:23:59;100381.53;;;17.03;87.96
56671;BME280;42545;50.054;8.306;2022-07-22T02:26:26;100377.09;;;17.05;87.16
56671;BME280;42545;50.054;8.306;2022-07-22T02:28:54;100376.16;;;17.06;87.02
56671;BME280;42545;50.054;8.306;2022-07-22T02:31:22;100370.84;;;17.06;86.86
56671;BME280;42545;50.054;8.306;2022-07-22T02:33:49;100377.97;;;17.04;86.51
56671;BME280;42545;50.054;8.306;2022-07-22T02:36:16;100374.41;;;17.01;86.63
56671;BME280;42545;50.054;8.306;2022-07-22T02:38:43;100371.78;;;16.96;86.73
56671;BME280;42545;50.054;8.306;2022-07-22T02:41:10;100374.47;;;16.93;87.17
56671;BME280;42545;50.054;8.306;2022-07-22T02:43:36;100382.47;;;16.91;87.45
56671;BME280;42545;50.054;8.306;2022-07-22T02:46:05;100373.59;;;16.91;87.39
56671;BME280;42545;50.054;8.306;2022-07-22T02:48:32;100384.25;;;16.88;87.29
56671;BME280;42545;50.054;8.306;2022-07-22T02:50:59;100383.38;;;16.89;87.24
56671;BME280;42545;50.054;8.306;2022-07-22T02:53:26;100384.25;;;16.91;87.66
56671;BME280;42545;50.054;8.306;2022-07-22T02:55:53;100384.25;;;16.89;86.94
56671;BME280;42545;50.054;8.306;2022-07-22T02:58:19;100388.72;;;16.90;86.23
56671;BME280;42545;50.054;8.306;2022-07-22T03:00:46;100386.03;;;16.90;86.17
56671;BME280;42545;50.054;8.306;2022-07-22T03:03:15;100400.25;;;16.91;85.90
56671;BME280;42545;50.054;8.306;2022-07-22T03:05:42;100387.78;;;16.93;86.00
56671;BME280;42545;50.054;8.306;2022-07-22T03:08:08;100393.13;;;16.96;85.80
56671;BME280;42545;50.054;8.306;2022-07-22T03:10:36;100391.31;;;17.00;85.61
56671;BME280;42545;50.054;8.306;2022-07-22T03:13:03;100394.88;;;17.02;84.49
56671;BME280;42545;50.054;8.306;2022-07-22T03:15:30;100400.19;;;17.02;84.96
56671;BME280;42545;50.054;8.306;2022-07-22T03:17:57;100400.19;;;17.03;84.83
56671;BME280;42545;50.054;8.306;2022-07-22T03:20:25;100402.88;;;17.03;84.88
56671;BME280;42545;50.054;8.306;2022-07-22T03:22:51;100396.63;;;17.03;85.03
56671;BME280;42545;50.054;8.306;2022-07-22T03:25:19;100398.41;;;17.04;84.66
56671;BME280;42545;50.054;8.306;2022-07-22T03:27:46;100403.75;;;17.05;83.75
56671;BME280;42545;50.054;8.306;2022-07-22T03:30:13;100401.06;;;17.05;83.44
56671;BME280;42545;50.054;8.306;2022-07-22T03:32:40;100405.50;;;17.08;83.49
56671;BME280;42545;50.054;8.306;2022-07-22T03:35:10;100401.94;;;17.09;83.50
56671;BME280;42545;50.054;8.306;2022-07-22T03:37:38;100398.38;;;17.10;83.64
56671;BME280;42545;50.054;8.306;2022-07-22T03:40:06;100396.56;;;17.12;83.64
56671;BME280;42545;50.054;8.306;2022-07-22T03:42:34;100399.25;;;17.15;83.81
56671;BME280;42545;50.054;8.306;2022-07-22T03:45:01;100401.03;;;17.16;83.78
56671;BME280;42545;50.054;8.306;2022-07-22T03:47:27;100403.69;;;17.15;83.52
56671;BME280;42545;50.054;8.306;2022-07-22T03:49:54;100401.91;;;17.14;83.34
56671;BME280;42545;50.054;8.306;2022-07-22T03:52:22;100401.03;;;17.13;83.27
56671;BME280;42545;50.054;8.306;2022-07-22T03:54:50;100395.69;;;17.13;83.78
56671;BME280;42545;50.054;8.306;2022-07-22T03:57:17;100400.16;;;17.08;83.37
56671;BME280;42545;50.054;8.306;2022-07-22T03:59:44;100403.75;;;17.07;83.85
56671;BME280;42545;50.054;8.306;2022-07-22T04:02:12;100395.75;;;17.05;84.12
56671;BME280;42545;50.054;8.306;2022-07-22T04:04:39;100397.53;;;17.05;83.99
56671;BME280;42545;50.054;8.306;2022-07-22T04:07:06;100392.19;;;17.00;82.79
56671;BME280;42545;50.054;8.306;2022-07-22T04:09:33;100387.78;;;16.96;82.83
56671;BME280;42545;50.054;8.306;2022-07-22T04:12:02;100386.88;;;16.97;82.77
56671;BME280;42545;50.054;8.306;2022-07-22T04:14:29;100382.47;;;16.93;82.93
56671;BME280;42545;50.054;8.306;2022-07-22T04:16:56;100386.91;;;16.94;82.74
56671;BME280;42545;50.054;8.306;2022-07-22T04:19:23;100383.34;;;16.94;82.50
56671;BME280;42545;50.054;8.306;2022-07-22T04:21:50;100370.00;;;16.95;82.47
56671;BME280;42545;50.054;8.306;2022-07-22T04:24:16;100367.34;;;17.00;82.36
56671;BME280;42545;50.054;8.306;2022-07-22T04:26:44;100364.63;;;17.03;81.91
56671;BME280;42545;50.054;8.306;2022-07-22T04:29:12;100360.16;;;17.08;82.01
56671;BME280;42545;50.054;8.306;2022-07-22T04:31:39;100356.59;;;17.14;82.06
56671;BME280;42545;50.054;8.306;2022-07-22T04:34:06;100368.13;;;17.16;81.20
56671;BME280;42545;50.054;8.306;2022-07-22T04:36:32;100365.50;;;17.14;81.32
56671;BME280;42545;50.054;8.306;2022-07-22T04:38:59;100362.78;;;17.17;81.16
56671;BME280;42545;50.054;8.306;2022-07-22T04:41:26;100365.44;;;17.20;81.10
56671;BME280;42545;50.054;8.306;2022-07-22T04:43:53;100365.44;;;17.23;81.57
56671;BME280;42545;50.054;8.306;2022-07-22T04:46:22;100370.72;;;17.26;80.18
56671;BME280;42545;50.054;8.306;2022-07-22T04:48:48;100367.19;;;17.29;80.82
56671;BME280;42545;50.054;8.306;2022-07-22T04:51:15;100364.50;;;17.31;80.94
56671;BME280;42545;50.054;8.306;2022-07-22T04:53:42;100362.72;;;17.33;80.16
56671;BME280;42545;50.054;8.306;2022-07-22T04:56:09;100358.25;;;17.30;79.80
56671;BME280;42545;50.054;8.306;2022-07-22T04:58:36;100357.38;;;17.31;79.95
56671;BME280;42545;50.054;8.306;2022-07-22T05:01:04;100365.34;;;17.36;80.27
56671;BME280;42545;50.054;8.306;2022-07-22T05:03:32;100364.44;;;17.38;80.64
56671;BME280;42545;50.054;8.306;2022-07-22T05:06:00;100365.31;;;17.39;80.33
56671;BME280;42545;50.054;8.306;2022-07-22T05:08:27;100368.84;;;17.44;80.68
56671;BME280;42545;50.054;8.306;2022-07-22T05:10:53;100358.19;;;17.42;80.41
56671;BME280;42545;50.054;8.306;2022-07-22T05:13:20;100368.81;;;17.48;80.45
56671;BME280;42545;50.054;8.306;2022-07-22T05:15:48;100376.78;;;17.52;80.48
56671;BME280;42545;50.054;8.306;2022-07-22T05:18:14;100375.88;;;17.57;79.73
56671;BME280;42545;50.054;8.306;2022-07-22T05:20:43;100378.50;;;17.62;79.03
56671;BME280;42545;50.054;8.306;2022-07-22T05:23:10;100382.94;;;17.64;79.05
56671;BME280;42545;50.054;8.306;2022-07-22T05:25:37;100382.03;;;17.67;78.95
56671;BME280;42545;50.054;8.306;2022-07-22T05:28:04;100381.09;;;17.71;78.56
56671;BME280;42545;50.054;8.306;2022-07-22T05:30:31;100381.94;;;17.78;78.50
56671;BME280;42545;50.054;8.306;2022-07-22T05:32:57;100379.31;;;17.76;76.95
56671;BME280;42545;50.054;8.306;2022-07-22T05:35:24;100379.25;;;17.79;77.65
56671;BME280;42545;50.054;8.306;2022-07-22T05:37:53;100384.56;;;17.82;77.82
56671;BME280;42545;50.054;8.306;2022-07-22T05:40:19;100379.22;;;17.82;77.82
56671;BME280;42545;50.054;8.306;2022-07-22T05:42:46;100375.69;;;17.82;78.12
56671;BME280;42545;50.054;8.306;2022-07-22T05:45:13;100383.69;;;17.83;78.49
56671;BME280;42545;50.054;8.306;2022-07-22T05:47:40;100369.44;;;17.84;78.42
56671;BME280;42545;50.054;8.306;2022-07-22T05:50:07;100373.91;;;17.85;78.53
56671;BME280;42545;50.054;8.306;2022-07-22T05:52:35;100377.44;;;17.89;78.48
56671;BME280;42545;50.054;8.306;2022-07-22T05:55:04;100371.16;;;17.96;78.30
56671;BME280;42545;50.054;8.306;2022-07-22T05:57:31;100364.03;;;17.97;78.18
56671;BME280;42545;50.054;8.306;2022-07-22T05:59:58;100360.44;;;17.99;78.06
56671;BME280;42545;50.054;8.306;2022-07-22T06:02:25;100355.09;;;17.99;77.42
56671;BME280;42545;50.054;8.306;2022-07-22T06:04:51;100352.47;;;17.93;76.88
56671;BME280;42545;50.054;8.306;2022-07-22T06:07:20;100346.28;;;17.91;77.08
56671;BME280;42545;50.054;8.306;2022-07-22T06:09:46;100357.81;;;17.93;77.03
56671;BME280;42545;50.054;8.306;2022-07-22T06:12:15;100358.69;;;17.95;76.88
56671;BME280;42545;50.054;8.306;2022-07-22T06:14:41;100357.81;;;17.96;76.99
56671;BME280;42545;50.054;8.306;2022-07-22T06:17:09;100363.97;;;18.01;76.76
56671;BME280;42545;50.054;8.306;2022-07-22T06:19:36;100368.41;;;18.04;76.82
56671;BME280;42545;50.054;8.306;2022-07-22T06:22:03;100370.16;;;18.05;76.60
56671;BME280;42545;50.054;8.306;2022-07-22T06:24:30;100360.25;;;18.18;77.38
56671;BME280;42545;50.054;8.306;2022-07-22T06:26:57;100361.00;;;18.32;77.00
56671;BME280;42545;50.054;8.306;2022-07-22T06:29:25;100367.94;;;18.47;76.42
56671;BME280;42545;50.054;8.306;2022-07-22T06:31:52;100370.47;;;18.61;75.34
56671;BME280;42545;50.054;8.306;2022-07-22T06:34:20;100359.69;;;18.70;73.64
56671;BME280;42545;50.054;8.306;2022-07-22T06:36:47;100359.59;;;18.81;73.53
56671;BME280;42545;50.054;8.306;2022-07-22T06:39:14;100364.84;;;18.89;72.80
56671;BME280;42545;50.054;8.306;2022-07-22T06:41:41;100359.47;;;18.90;72.17
56671;BME280;42545;50.054;8.306;2022-07-22T06:44:08;100366.50;;;18.99;72.42
56671;BME280;42545;50.054;8.306;2022-07-22T06:46:37;100371.81;;;19.00;71.60
56671;BME280;42545;50.054;8.306;2022-07-22T06:49:05;100360.19;;;19.01;71.04
56671;BME280;42545;50.054;8.306;2022-07-22T06:51:32;100364.66;;;19.04;71.16
56671;BME280;42545;50.054;8.306;2022-07-22T06:53:59;100358.34;;;19.07;71.09
56671;BME280;42545;50.054;8.306;2022-07-22T06:56:26;100361.00;;;19.10;70.82
56671;BME280;42545;50.054;8.306;2022-07-22T06:58:53;100361.88;;;19.10;70.56
56671;BME280;42545;50.054;8.306;2022-07-22T07:01:20;100357.38;;;19.12;71.11
56671;BME280;42545;50.054;8.306;2022-07-22T07:03:48;100352.81;;;19.20;71.13
56671;BME280;42545;50.054;8.306;2022-07-22T07:06:16;100355.38;;;19.28;71.05
56671;BME280;42545;50.054;8.306;2022-07-22T07:08:43;100351.69;;;19.37;70.61
56671;BME280;42545;50.054;8.306;2022-07-22T07:11:09;100342.66;;;19.44;70.45
56671;BME280;42545;50.054;8.306;2022-07-22T07:13:36;100340.97;;;19.38;70.19
56671;BME280;42545;50.054;8.306;2022-07-22T07:16:03;100347.25;;;19.36;70.63
56671;BME280;42545;50.054;8.306;2022-07-22T07:18:30;100341.91;;;19.34;70.65
56671;BME280;42545;50.054;8.306;2022-07-22T07:20:59;100339.22;;;19.36;71.07
56671;BME280;42545;50.054;8.306;2022-07-22T07:23:25;100334.69;;;19.41;71.25
56671;BME280;42545;50.054;8.306;2022-07-22T07:25:52;100334.56;;;19.49;70.01
56671;BME280;42545;50.054;8.306;2022-07-22T07:28:19;100331.00;;;19.48;70.79
56671;BME280;42545;50.054;8.306;2022-07-22T07:30:46;100332.59;;;19.58;70.81
56671;BME280;42545;50.054;8.306;2022-07-22T07:33:13;100328.03;;;19.67;71.22
56671;BME280;42545;50.054;8.306;2022-07-22T07:35:42;100328.78;;;19.76;71.11
56671;BME280;42545;50.054;8.306;2022-07-22T07:38:10;100330.44;;;19.84;71.30
56671;BME280;42545;50.054;8.306;2022-07-22T07:40:37;100326.69;;;19.94;70.94
56671;BME280;42545;50.054;8.306;2022-07-22T07:43:04;100322.97;;;20.03;70.20
56671;BME280;42545;50.054;8.306;2022-07-22T07:45:31;100327.25;;;20.11;69.12
56671;BME280;42545;50.054;8.306;2022-07-22T07:47:58;100324.50;;;20.17;68.45
56671;BME280;42545;50.054;8.306;2022-07-22T07:50:25;100319.09;;;20.21;68.28
56671;BME280;42545;50.054;8.306;2022-07-22T07:52:53;100320.81;;;20.22;68.47
56671;BME280;42545;50.054;8.306;2022-07-22T07:55:21;100317.19;;;20.24;68.67
56671;BME280;42545;50.054;8.306;2022-07-22T07:57:48;100319.78;;;20.30;68.98
56671;BME280;42545;50.054;8.306;2022-07-22T08:00:21;100324.06;;;20.39;67.63
56671;BME280;42545;50.054;8.306;2022-07-22T08:02:49;100325.84;;;20.39;67.72
56671;BME280;42545;50.054;8.306;2022-07-22T08:05:16;100316.06;;;20.38;68.46
56671;BME280;42545;50.054;8.306;2022-07-22T08:07:44;100317.69;;;20.46;68.56
56671;BME280;42545;50.054;8.306;2022-07-22T08:10:11;100319.41;;;20.49;68.07
56671;BME280;42545;50.054;8.306;2022-07-22T08:12:40;100321.19;;;20.50;67.64
56671;BME280;42545;50.054;8.306;2022-07-22T08:15:07;100320.19;;;20.54;68.41
56671;BME280;42545;50.054;8.306;2022-07-22T08:17:35;100320.03;;;20.63;68.33
56671;BME280;42545;50.054;8.306;2022-07-22T08:20:04;100320.81;;;20.70;67.84
56671;BME280;42545;50.054;8.306;2022-07-22T08:22:31;100315.31;;;20.76;67.01
56671;BME280;42545;50.054;8.306;2022-07-22T08:24:58;100314.19;;;20.86;67.50
56671;BME280;42545;50.054;8.306;2022-07-22T08:27:25;100304.38;;;20.85;65.69
56671;BME280;42545;50.054;8.306;2022-07-22T08:29:53;100306.06;;;20.89;66.89
56671;BME280;42545;50.054;8.306;2022-07-22T08:32:20;100298.75;;;20.98;67.04
56671;BME280;42545;50.054;8.306;2022-07-22T08:34:47;100302.13;;;21.06;66.89
56671;BME280;42545;50.054;8.306;2022-07-22T08:37:14;100295.63;;;21.16;66.89
56671;BME280;42545;50.054;8.306;2022-07-22T08:39:41;100288.25;;;21.26;66.74
56671;BME280;42545;50.054;8.306;2022-07-22T08:42:10;100283.59;;;21.34;66.02
56671;BME280;42545;50.054;8.306;2022-07-22T08:44:39;100279.84;;;21.41;66.29
56671;BME280;42545;50.054;8.306;2022-07-22T08:47:08;100290.38;;;21.50;65.15
56671;BME280;42545;50.054;8.306;2022-07-22T08:49:35;100292.97;;;21.54;64.73
56671;BME280;42545;50.054;8.306;2022-07-22T08:52:01;100291.28;;;21.49;64.04
56671;BME280;42545;50.054;8.306;2022-07-22T08:54:29;100295.84;;;21.46;63.04
56671;BME280;42545;50.054;8.306;2022-07-22T08:56:56;100286.91;;;21.45;62.87
56671;BME280;42545;50.054;8.306;2022-07-22T08:59:23;100284.25;;;21.42;63.35
56671;BME280;42545;50.054;8.306;2022-07-22T09:02:04;100284.28;;;21.41;63.72
56671;BME280;42545;50.054;8.306;2022-07-22T09:04:50;100291.41;;;21.45;63.21
56671;BME280;42545;50.054;8.306;2022-07-22T09:07:23;100287.00;;;21.39;64.52
56671;BME280;42545;50.054;8.306;2022-07-22T09:09:50;100290.47;;;21.44;64.75
56671;BME280;42545;50.054;8.306;2022-07-22T09:12:17;100289.47;;;21.50;63.37
56671;BME280;42545;50.054;8.306;2022-07-22T09:14:45;100283.03;;;21.57;62.35
56671;BME280;42545;50.054;8.306;2022-07-22T09:17:22;100282.91;;;21.63;61.73
56671;BME280;42545;50.054;8.306;2022-07-22T09:19:53;100282.84;;;21.65;61.30
56671;BME280;42545;50.054;8.306;2022-07-22T09:22:34;100281.97;;;21.63;60.25
56671;BME280;42545;50.054;8.306;2022-07-22T09:25:26;100280.25;;;21.62;62.65
56671;BME280;42545;50.054;8.306;2022-07-22T09:27:55;100275.72;;;21.64;61.74
56671;BME280;42545;50.054;8.306;2022-07-22T09:30:24;100270.97;;;21.74;62.07
56671;BME280;42545;50.054;8.306;2022-07-22T09:32:53;100277.66;;;21.92;61.03
56671;BME280;42545;50.054;8.306;2022-07-22T09:35:24;100271.00;;;22.06;61.22
56671;BME280;42545;50.054;8.306;2022-07-22T09:37:52;100269.59;;;22.24;60.70
56671;BME280;42545;50.054;8.306;2022-07-22T09:40:22;100270.84;;;22.45;61.16
56671;BME280;42545;50.054;8.306;2022-07-22T09:42:52;100272.09;;;22.63;59.88
56671;BME280;42545;50.054;8.306;2022-07-22T09:45:20;100268.38;;;22.68;59.17
56671;BME280;42545;50.054;8.306;2022-07-22T09:47:47;100262.91;;;22.71;58.82
56671;BME280;42545;50.054;8.306;2022-07-22T09:50:17;100257.63;;;22.68;58.66
56671;BME280;42545;50.054;8.306;2022-07-22T09:52:47;100252.09;;;22.72;58.37
56671;BME280;42545;50.054;8.306;2022-07-22T09:55:15;100260.00;;;22.78;58.55
56671;BME280;42545;50.054;8.306;2022-07-22T09:57:43;100250.09;;;22.79;57.19
56671;BME280;42545;50.054;8.306;2022-07-22T10:00:13;100245.72;;;22.76;56.37
56671;BME280;42545;50.054;8.306;2022-07-22T10:02:45;100242.91;;;22.79;57.17
56671;BME280;42545;50.054;8.306;2022-07-22T10:05:13;100247.94;;;22.90;56.73
56671;BME280;42545;50.054;8.306;2022-07-22T10:07:41;100244.31;;;22.93;57.16
56671;BME280;42545;50.054;8.306;2022-07-22T10:10:12;100241.63;;;22.93;56.03
56671;BME280;42545;50.054;8.306;2022-07-22T10:12:39;100238.72;;;22.99;55.66
56671;BME280;42545;50.054;8.306;2022-07-22T10:15:08;100241.19;;;23.07;56.97
56671;BME280;42545;50.054;8.306;2022-07-22T10:17:35;100238.38;;;23.11;56.28
56671;BME280;42545;50.054;8.306;2022-07-22T10:20:04;100235.53;;;23.14;56.39
56671;BME280;42545;50.054;8.306;2022-07-22T10:22:47;100238.25;;;23.14;55.07
56671;BME280;42545;50.054;8.306;2022-07-22T10:25:18;100226.56;;;23.15;55.34
56671;BME280;42545;50.054;8.306;2022-07-22T10:27:48;100228.72;;;23.31;56.04
56671;BME280;42545;50.054;8.306;2022-07-22T10:30:17;100222.34;;;23.35;54.56
56671;BME280;42545;50.054;8.306;2022-07-22T10:32:44;100216.88;;;23.36;54.81
56671;BME280;42545;50.054;8.306;2022-07-22T10:35:23;100221.19;;;23.42;55.53
56671;BME280;42545;50.054;8.306;2022-07-22T10:37:53;100211.03;;;23.50;55.25
56671;BME280;42545;50.054;8.306;2022-07-22T10:40:24;100209.72;;;23.62;54.68
56671;BME280;42545;50.054;8.306;2022-07-22T10:43:09;100211.88;;;23.77;53.38
56671;BME280;42545;50.054;8.306;2022-07-22T10:45:39;100208.00;;;23.86;53.43
56671;BME280;42545;50.054;8.306;2022-07-22T10:48:07;100202.44;;;23.91;52.45
56671;BME280;42545;50.054;8.306;2022-07-22T10:51:05;100211.34;;;23.93;52.18
56671;BME280;42545;50.054;8.306;2022-07-22T10:53:47;100202.47;;;23.89;51.28
56671;BME280;42545;50.054;8.306;2022-07-22T10:56:18;100200.06;;;23.82;51.32
56671;BME280;42545;50.054;8.306;2022-07-22T10:58:51;100193.94;;;23.76;52.13
56671;BME280;42545;50.054;8.306;2022-07-22T11:01:21;100192.28;;;23.72;51.76
56671;BME280;42545;50.054;8.306;2022-07-22T11:03:50;100185.22;;;23.70;51.61
56671;BME280;42545;50.054;8.306;2022-07-22T11:06:20;100183.09;;;23.78;52.22
56671;BME280;42545;50.054;8.306;2022-07-22T11:08:49;100179.13;;;23.90;52.57
56671;BME280;42545;50.054;8.306;2022-07-22T11:11:20;100182.88;;;24.09;52.36
56671;BME280;42545;50.054;8.306;2022-07-22T11:13:57;100176.88;;;24.26;52.30
56671;BME280;42545;50.054;8.306;2022-07-22T11:16:25;100168.47;;;24.34;51.74
56671;BME280;42545;50.054;8.306;2022-07-22T11:18:54;100165.78;;;24.34;50.66
56671;BME280;42545;50.054;8.306;2022-07-22T11:21:22;100158.47;;;24.37;50.02
56671;BME280;42545;50.054;8.306;2022-07-22T11:23:51;100155.28;;;24.50;51.22
56671;BME280;42545;50.054;8.306;2022-07-22T11:26:24;100153.69;;;24.68;50.44
56671;BME280;42545;50.054;8.306;2022-07-22T11:28:51;100150.38;;;24.83;50.25
56671;BME280;42545;50.054;8.306;2022-07-22T11:31:20;100152.94;;;24.86;49.83
56671;BME280;42545;50.054;8.306;2022-07-22T11:33:47;100144.66;;;24.91;49.08
56671;BME280;42545;50.054;8.306;2022-07-22T11:36:13;100140.47;;;25.04;49.04
56671;BME280;42545;50.054;8.306;2022-07-22T11:38:46;100127.72;;;25.08;48.57
56671;BME280;42545;50.054;8.306;2022-07-22T11:41:15;100130.25;;;25.12;48.36
56671;BME280;42545;50.054;8.306;2022-07-22T11:43:45;100136.19;;;25.21;46.21
56671;BME280;42545;50.054;8.306;2022-07-22T11:46:13;100137.72;;;25.28;47.70
56671;BME280;42545;50.054;8.306;2022-07-22T11:48:41;100141.03;;;25.35;47.18
56671;BME280;42545;50.054;8.306;2022-07-22T11:51:10;100132.00;;;25.36;47.04
56671;BME280;42545;50.054;8.306;2022-07-22T11:53:38;100133.22;;;25.49;46.35
56671;BME280;42545;50.054;8.306;2022-07-22T11:56:06;100128.50;;;25.54;45.31
56671;BME280;42545;50.054;8.306;2022-07-22T11:58:35;100125.91;;;25.51;44.76
56671;BME280;42545;50.054;8.306;2022-07-22T12:01:05;100123.97;;;25.55;45.16
56671;BME280;42545;50.054;8.306;2022-07-22T12:03:33;100120.66;;;25.68;45.50
56671;BME280;42545;50.054;8.306;2022-07-22T12:06:05;100120.97;;;25.81;44.53
56671;BME280;42545;50.054;8.306;2022-07-22T12:08:34;100120.66;;;25.87;44.36
56671;BME280;42545;50.054;8.306;2022-07-22T12:11:05;100121.31;;;25.94;43.66
56671;BME280;42545;50.054;8.306;2022-07-22T12:13:32;100112.91;;;26.00;43.44
56671;BME280;42545;50.054;8.306;2022-07-22T12:15:59;100115.03;;;26.13;43.21
56671;BME280;42545;50.054;8.306;2022-07-22T12:18:27;100105.81;;;26.17;42.74
56671;BME280;42545;50.054;8.306;2022-07-22T12:20:55;100113.56;;;26.24;42.55
56671;BME280;42545;50.054;8.306;2022-07-22T12:23:24;100103.19;;;26.34;42.55
56671;BME280;42545;50.054;8.306;2022-07-22T12:25:53;100098.72;;;26.33;42.52
56671;BME280;42545;50.054;8.306;2022-07-22T12:28:21;100104.41;;;26.46;42.19
56671;BME280;42545;50.054;8.306;2022-07-22T12:30:48;100097.75;;;26.53;42.06
56671;BME280;42545;50.054;8.306;2022-07-22T12:33:16;100093.59;;;26.65;42.06
56671;BME280;42545;50.054;8.306;2022-07-22T12:35:57;100093.06;;;26.76;41.35
56671;BME280;42545;50.054;8.306;2022-07-22T12:38:25;100089.56;;;26.74;41.04
56671;BME280;42545;50.054;8.306;2022-07-22T12:40:52;100079.19;;;26.64;41.60
56671;BME280;42545;50.054;8.306;2022-07-22T12:43:24;100076.91;;;26.55;40.48
56671;BME280;42545;50.054;8.306;2022-07-22T12:45:52;100076.31;;;26.48;40.83
56671;BME280;42545;50.054;8.306;2022-07-22T12:48:19;100071.09;;;26.45;41.30
56671;BME280;42545;50.054;8.306;2022-07-22T12:50:56;100069.09;;;26.49;41.26
56671;BME280;42545;50.054;8.306;2022-07-22T12:53:25;100063.63;;;26.51;40.45
56671;BME280;42545;50.054;8.306;2022-07-22T12:55:56;100063.69;;;26.49;40.77